KLAS

Mc Carran International Airport

Las Vegas, Nevada, USA
METAR KLAS 240156Z 12007KT 10SM FEW120 31/00 A2981 RMK AO2 SLP070 T03110000
Observed Flight Rules
May-24 @ 01:56 UTC (9 minutes ago) Visual Flight Rules
Wind Visibility Clouds
120° at 7 knots 10 miles
  • Few at 12,000' AGL
Temperatures Readings
Current 31°C / 88°F
Dewpoint 0°C / 32°F
Humidity 13%
Altimeter 29.81" Hg
Pressure 1007 hPa
Elevation 636
METAR KLAS 240156Z 12007KT 10SM FEW120 31/00 A2981 RMK AO2 SLP070 T03110000
Observed Flight Rules
May-24 @ 01:56 UTC
(9 minutes ago)
VFR
Wind Visibility
120° at 7 knots 10 miles
Clouds
  • Few at 12,000' AGL
Temperature Dewpoint
31°C / 88°F 0°C / 32°F
Humidity Altimeter Pressure
13% 29.81" Hg 1007 hPa